Time;durP1;ratioP1;P1;durP2;ratioP2;P2;SDS_P1;SDS_P2;PMS_P1;PMS_P2;Temp;Humidity;BMP_temperature;BMP_pressure;BME280_temperature;BME280_humidity;BME280_pressure;Samples;Min_cycle;Max_cycle;Signal;HPM_P1;HPM_P2
2021/08/01 00:00:21;;;;;;;2.90;1.30;;;;;;;18.69;49.14;99961.31;4882411;28;126682;-77
2021/08/01 00:02:48;;;;;;;2.85;0.95;;;;;;;18.68;49.23;99963.25;4884222;28;107487;-76
2021/08/01 00:05:14;;;;;;;3.97;1.10;;;;;;;18.68;49.40;99968.72;4869867;28;98572;-77
2021/08/01 00:07:40;;;;;;;2.45;1.33;;;;;;;18.70;49.28;99968.38;4932349;28;110645;-77
2021/08/01 00:10:09;;;;;;;3.67;1.80;;;;;;;18.73;49.52;99968.53;4903176;28;99101;-66
2021/08/01 00:12:35;;;;;;;4.28;1.90;;;;;;;18.75;49.47;99966.28;4903618;28;114506;-66
2021/08/01 00:15:02;;;;;;;6.43;1.80;;;;;;;18.78;49.64;99953.88;4902201;28;97768;-77
2021/08/01 00:17:28;;;;;;;3.60;1.45;;;;;;;18.80;49.67;99957.06;4903890;28;100302;-66
2021/08/01 00:19:54;;;;;;;4.30;1.38;;;;;;;18.79;49.42;99948.09;4897889;28;126568;-66
2021/08/01 00:22:20;;;;;;;3.88;1.17;;;;;;;18.82;49.40;99955.63;4883988;28;113085;-66
2021/08/01 00:24:47;;;;;;;2.83;1.30;;;;;;;18.83;49.25;99945.50;4885345;28;98056;-76
2021/08/01 00:27:13;;;;;;;2.90;1.20;;;;;;;18.82;49.50;99952.06;4883497;28;119993;-76
2021/08/01 00:29:39;;;;;;;3.88;1.55;;;;;;;18.81;49.57;99945.81;4897520;28;127714;-66
2021/08/01 00:32:06;;;;;;;3.47;1.55;;;;;;;18.78;49.14;99935.56;4883792;28;105669;-66
2021/08/01 00:34:32;;;;;;;4.05;1.60;;;;;;;18.79;49.54;99939.09;4894179;28;101692;-66
2021/08/01 00:36:58;;;;;;;6.85;1.80;;;;;;;18.74;49.58;99929.16;4903193;28;99185;-65
2021/08/01 00:39:24;;;;;;;6.20;1.40;;;;;;;18.72;49.54;99938.84;4902311;28;126666;-65
2021/08/01 00:41:50;;;;;;;2.70;1.05;;;;;;;18.65;48.95;99926.50;4917511;28;99923;-66
2021/08/01 00:44:16;;;;;;;4.38;1.60;;;;;;;18.62;49.42;99932.63;4902283;28;115741;-76
2021/08/01 00:46:43;;;;;;;2.45;1.35;;;;;;;18.58;49.69;99937.13;4927934;28;118034;-65
2021/08/01 00:49:09;;;;;;;3.65;1.30;;;;;;;18.56;49.73;99936.69;4902694;28;98125;-66
2021/08/01 00:51:35;;;;;;;2.97;1.20;;;;;;;18.53;50.00;99937.34;4934105;28;98110;-76
2021/08/01 00:54:02;;;;;;;4.15;1.15;;;;;;;18.52;49.97;99932.25;4916436;28;106423;-76
2021/08/01 00:56:29;;;;;;;2.95;1.13;;;;;;;18.48;49.89;99923.13;4902453;28;115843;-76
2021/08/01 00:58:55;;;;;;;2.72;0.80;;;;;;;18.43;50.21;99918.66;4914229;28;111468;-76
2021/08/01 01:01:42;;;;;;;4.13;1.20;;;;;;;18.41;50.01;99920.91;4881943;28;127711;-66
2021/08/01 01:04:26;;;;;;;2.65;1.05;;;;;;;18.38;50.12;99911.44;4883966;28;97905;-66
2021/08/01 01:07:06;;;;;;;2.83;1.08;;;;;;;18.36;50.15;99911.00;4883473;28;118079;-66
2021/08/01 01:09:38;;;;;;;1.77;0.90;;;;;;;18.36;50.59;99911.00;4885525;28;100883;-66
2021/08/01 01:12:08;;;;;;;4.00;1.40;;;;;;;18.34;50.79;99910.53;4885106;28;97945;-66
2021/08/01 01:14:37;;;;;;;1.60;1.00;;;;;;;18.33;50.74;99903.47;4901162;28;98295;-76
2021/08/01 01:17:04;;;;;;;4.55;1.30;;;;;;;18.36;51.13;99913.72;4900543;28;116983;-76
2021/08/01 01:19:50;;;;;;;4.63;1.15;;;;;;;18.29;50.73;99915.41;4900213;28;119732;-66
2021/08/01 01:23:03;;;;;;;3.63;1.23;;;;;;;18.25;50.85;99917.97;4864752;28;97784;-77
2021/08/01 01:26:10;;;;;;;2.38;1.27;;;;;;;18.18;50.90;99912.25;4900986;28;97966;-76
2021/08/01 01:28:50;;;;;;;4.18;1.50;;;;;;;18.12;50.93;99917.09;4901141;28;99035;-76
2021/08/01 01:31:47;;;;;;;4.43;1.30;;;;;;;18.07;51.24;99927.41;4900690;28;99017;-77
2021/08/01 01:34:16;;;;;;;6.00;1.25;;;;;;;18.07;51.77;99932.84;4901533;28;98542;-66
2021/08/01 01:36:43;;;;;;;2.83;1.33;;;;;;;18.06;51.97;99931.25;4901170;28;97974;-76
2021/08/01 01:39:10;;;;;;;2.85;1.30;;;;;;;18.07;51.83;99922.72;4900920;28;98475;-66
2021/08/01 01:41:36;;;;;;;2.67;1.35;;;;;;;18.08;52.11;99924.34;4901220;28;104506;-77
2021/08/01 01:44:02;;;;;;;3.22;1.17;;;;;;;18.08;51.71;99938.00;4900031;28;107555;-76
2021/08/01 01:46:28;;;;;;;2.40;1.33;;;;;;;18.04;52.23;99945.22;4884394;28;105268;-66
2021/08/01 01:48:54;;;;;;;3.63;1.42;;;;;;;18.02;52.41;99939.28;4899992;28;98431;-77
2021/08/01 01:51:20;;;;;;;5.15;1.35;;;;;;;18.01;52.41;99939.63;4899898;28;128035;-65
2021/08/01 01:53:46;;;;;;;4.22;1.30;;;;;;;18.01;52.46;99942.38;4883852;28;127581;-77
2021/08/01 01:56:12;;;;;;;3.78;1.40;;;;;;;17.99;52.42;99936.44;4900285;28;107073;-66
2021/08/01 01:58:39;;;;;;;3.83;1.40;;;;;;;17.96;52.67;99937.06;4884291;28;110737;-66
2021/08/01 02:01:05;;;;;;;4.03;1.25;;;;;;;17.93;53.00;99941.28;4900577;28;128002;-76
2021/08/01 02:03:32;;;;;;;3.05;1.50;;;;;;;17.92;52.92;99936.97;4901829;28;98180;-76
2021/08/01 02:05:58;;;;;;;3.13;1.40;;;;;;;17.92;53.10;99945.16;4900151;28;103988;-66
2021/08/01 02:08:24;;;;;;;2.95;1.45;;;;;;;17.91;53.14;99944.31;4899516;28;128072;-77
2021/08/01 02:10:55;;;;;;;2.65;1.50;;;;;;;17.86;52.99;99944.50;4901510;28;98384;-77
2021/08/01 02:13:29;;;;;;;3.55;1.50;;;;;;;17.80;52.92;99945.84;4901213;28;98260;-77
2021/08/01 02:15:56;;;;;;;3.65;1.52;;;;;;;17.75;53.28;99945.22;4885356;28;98084;-66
2021/08/01 02:18:32;;;;;;;3.53;1.40;;;;;;;17.71;53.70;99960.59;4900317;28;99155;-77
2021/08/01 02:20:58;;;;;;;2.75;1.58;;;;;;;17.70;53.54;99962.53;4899671;28;99350;-76
2021/08/01 02:23:35;;;;;;;4.05;1.88;;;;;;;17.64;53.57;99966.53;4883526;28;127905;-66
2021/08/01 02:26:02;;;;;;;5.25;1.70;;;;;;;17.64;54.01;99966.53;4870311;28;97939;-77
2021/08/01 02:28:28;;;;;;;3.85;1.80;;;;;;;17.62;54.20;99972.31;4883276;28;115019;-66
2021/08/01 02:30:55;;;;;;;3.60;1.60;;;;;;;17.60;54.05;99960.94;4882874;28;124090;-77
2021/08/01 02:33:26;;;;;;;2.72;1.80;;;;;;;17.56;54.03;99962.72;4884454;28;98730;-66
2021/08/01 02:35:59;;;;;;;2.87;1.60;;;;;;;17.51;53.98;99964.81;4900157;28;98227;-76
2021/08/01 02:38:25;;;;;;;3.88;1.60;;;;;;;17.47;54.04;99955.72;4899805;28;98111;-76
2021/08/01 02:40:52;;;;;;;3.22;1.83;;;;;;;17.42;54.13;99952.03;4899229;28;123453;-66
2021/08/01 02:43:18;;;;;;;3.38;1.83;;;;;;;17.42;54.40;99954.75;4899337;28;98737;-66
2021/08/01 02:45:44;;;;;;;3.35;1.42;;;;;;;17.40;54.70;99962.44;4884029;28;117765;-77
2021/08/01 02:48:11;;;;;;;4.40;1.67;;;;;;;17.40;54.59;99962.44;4895629;28;128933;-65
2021/08/01 02:50:38;;;;;;;2.67;1.85;;;;;;;17.38;54.50;99958.47;4896029;28;99495;-77
2021/08/01 02:53:16;;;;;;;3.70;1.73;;;;;;;17.32;53.99;99951.56;4913627;28;113939;-66
2021/08/01 02:55:43;;;;;;;4.85;1.75;;;;;;;17.26;54.63;99945.50;4899668;28;109993;-77
2021/08/01 02:58:09;;;;;;;3.15;1.70;;;;;;;17.22;54.67;99941.03;4899589;28;98237;-77
2021/08/01 03:00:36;;;;;;;4.22;2.10;;;;;;;17.13;54.71;99939.16;4900531;28;126556;-66
2021/08/01 03:03:03;;;;;;;5.05;1.98;;;;;;;17.05;54.83;99936.41;4898054;28;127070;-77
2021/08/01 03:05:29;;;;;;;4.38;1.65;;;;;;;16.98;55.07;99938.81;4915365;28;107739;-77
2021/08/01 03:07:55;;;;;;;2.47;1.98;;;;;;;16.89;55.10;99934.19;4915449;28;127632;-76
2021/08/01 03:10:21;;;;;;;3.80;1.83;;;;;;;16.85;55.38;99933.25;4915081;28;127895;-66
2021/08/01 03:12:50;;;;;;;4.22;1.90;;;;;;;16.84;55.44;99939.00;4900076;28;128562;-77
2021/08/01 03:15:16;;;;;;;3.03;1.65;;;;;;;16.86;55.71;99932.13;4897908;28;97973;-66
2021/08/01 03:17:42;;;;;;;5.72;1.70;;;;;;;16.87;55.68;99939.16;4900348;28;111027;-76
2021/08/01 03:20:09;;;;;;;2.50;1.75;;;;;;;16.87;55.56;99928.28;4896988;28;113290;-66
2021/08/01 03:22:35;;;;;;;3.38;1.85;;;;;;;16.91;55.71;99928.44;4894265;28;97846;-76
2021/08/01 03:25:02;;;;;;;3.38;2.00;;;;;;;16.91;55.66;99928.44;4902966;28;98430;-66
2021/08/01 03:27:28;;;;;;;3.30;1.88;;;;;;;16.95;55.95;99918.50;4934762;28;112419;-77
2021/08/01 03:29:54;;;;;;;4.35;1.83;;;;;;;16.99;55.89;99921.38;4903998;28;98522;-76
2021/08/01 03:32:22;;;;;;;3.28;1.58;;;;;;;17.02;55.90;99929.72;4902284;28;127323;-77
2021/08/01 03:34:48;;;;;;;4.28;2.03;;;;;;;17.03;55.69;99919.63;4886446;28;103621;-77
2021/08/01 03:37:15;;;;;;;3.03;2.10;;;;;;;17.04;55.51;99926.66;4884743;28;127997;-66
2021/08/01 03:39:41;;;;;;;5.10;2.20;;;;;;;17.05;55.50;99925.53;4898458;28;120655;-66
2021/08/01 03:42:07;;;;;;;4.20;2.10;;;;;;;17.07;55.56;99928.75;4882817;28;127471;-76
2021/08/01 03:44:33;;;;;;;3.53;2.10;;;;;;;17.10;55.66;99930.81;4917198;28;98169;-76
2021/08/01 03:46:59;;;;;;;3.90;1.88;;;;;;;17.12;55.59;99928.56;4914999;28;120675;-76
2021/08/01 03:49:25;;;;;;;5.47;1.98;;;;;;;17.13;55.68;99927.44;4883908;28;128590;-76
2021/08/01 03:51:51;;;;;;;3.55;2.00;;;;;;;17.16;55.77;99932.22;4883058;28;98110;-76
2021/08/01 03:54:17;;;;;;;3.45;2.00;;;;;;;17.17;55.82;99925.66;4915420;28;118764;-65
2021/08/01 03:56:44;;;;;;;4.82;2.20;;;;;;;17.17;56.11;99931.94;4883873;28;97992;-66
2021/08/01 03:59:13;;;;;;;4.20;2.03;;;;;;;17.17;55.60;99926.47;4884531;28;98729;-76
2021/08/01 04:01:39;;;;;;;2.92;1.77;;;;;;;17.23;55.93;99920.84;4898120;28;98200;-77
2021/08/01 04:04:05;;;;;;;3.47;2.00;;;;;;;17.25;56.10;99921.31;4891896;28;98901;-76
2021/08/01 04:06:33;;;;;;;4.72;2.20;;;;;;;17.26;55.94;99915.56;4915339;28;98219;-66
2021/08/01 04:08:59;;;;;;;2.75;2.13;;;;;;;17.30;56.10;99913.78;4899265;28;101447;-66
2021/08/01 04:11:26;;;;;;;4.38;2.00;;;;;;;17.35;56.14;99910.06;4883727;28;102338;-66
2021/08/01 04:13:52;;;;;;;3.95;2.22;;;;;;;17.37;56.25;99915.97;4882930;28;99838;-76
2021/08/01 04:16:18;;;;;;;4.60;1.88;;;;;;;17.38;56.38;99909.44;4894305;28;127297;-66
2021/08/01 04:18:44;;;;;;;4.10;2.25;;;;;;;17.41;56.00;99925.13;4902647;28;128040;-66
2021/08/01 04:21:11;;;;;;;2.63;1.88;;;;;;;17.41;56.27;99904.13;4902791;28;127289;-76
2021/08/01 04:23:38;;;;;;;2.45;2.00;;;;;;;17.42;56.32;99908.44;4903960;28;97640;-66
2021/08/01 04:26:05;;;;;;;3.75;2.05;;;;;;;17.42;56.17;99900.28;4903876;28;98395;-76
2021/08/01 04:28:31;;;;;;;3.67;1.90;;;;;;;17.44;56.44;99916.28;4932393;28;98382;-66
2021/08/01 04:30:57;;;;;;;3.88;2.00;;;;;;;17.42;56.43;99913.09;4881996;28;105630;-66
2021/08/01 04:33:24;;;;;;;3.75;2.20;;;;;;;17.42;56.31;99913.91;4891145;28;98719;-65
2021/08/01 04:35:50;;;;;;;4.28;1.90;;;;;;;17.43;56.64;99923.66;4902439;28;102016;-66
2021/08/01 04:38:16;;;;;;;3.42;2.13;;;;;;;17.45;56.62;99925.25;4902579;28;127430;-66
2021/08/01 04:40:42;;;;;;;2.70;2.00;;;;;;;17.48;56.50;99930.06;4902803;28;116738;-76
2021/08/01 04:43:08;;;;;;;6.45;2.28;;;;;;;17.49;56.62;99931.66;4902570;28;97873;-65
2021/08/01 04:45:34;;;;;;;3.92;2.05;;;;;;;17.51;56.82;99938.38;4902199;28;127924;-76
2021/08/01 04:48:00;;;;;;;3.22;1.90;;;;;;;17.50;57.03;99936.78;4901966;28;127420;-65
2021/08/01 04:50:26;;;;;;;3.40;2.17;;;;;;;17.55;56.80;99950.22;4887866;28;127292;-66
2021/08/01 04:52:52;;;;;;;4.47;2.30;;;;;;;17.57;56.44;99941.75;4883603;28;116832;-76
2021/08/01 04:55:19;;;;;;;3.33;1.95;;;;;;;17.62;56.70;99949.72;4898177;28;125436;-76
2021/08/01 04:57:46;;;;;;;3.22;2.33;;;;;;;17.64;56.24;99948.28;4924306;28;100236;-65
2021/08/01 05:00:13;;;;;;;3.88;2.15;;;;;;;17.66;56.48;99943.28;4902292;28;127816;-75
2021/08/01 05:02:39;;;;;;;2.75;2.20;;;;;;;17.70;56.49;99948.09;4902447;28;101830;-76
2021/08/01 05:05:06;;;;;;;4.43;2.42;;;;;;;17.68;56.84;99945.69;4906769;28;98473;-76
2021/08/01 05:07:32;;;;;;;4.53;2.13;;;;;;;17.70;56.64;99946.16;4881284;28;98451;-76
2021/08/01 05:09:59;;;;;;;3.80;2.20;;;;;;;17.72;56.59;99951.28;4883074;28;112545;-65
2021/08/01 05:12:25;;;;;;;3.20;2.15;;;;;;;17.75;56.70;99950.66;4883554;28;100782;-65
2021/08/01 05:14:51;;;;;;;4.15;2.42;;;;;;;17.82;56.68;99948.22;4884742;28;117705;-74
2021/08/01 05:17:17;;;;;;;3.88;2.75;;;;;;;17.90;56.31;99945.44;4884558;28;98892;-66
2021/08/01 05:19:43;;;;;;;4.53;2.58;;;;;;;17.96;56.33;99948.81;4896795;28;128161;-66
2021/08/01 05:22:09;;;;;;;4.20;2.20;;;;;;;18.01;56.61;99945.88;4897379;28;117937;-66
2021/08/01 05:24:42;;;;;;;4.00;1.90;;;;;;;18.07;56.37;99939.09;4883686;28;98649;-66
2021/08/01 05:27:08;;;;;;;3.50;2.40;;;;;;;18.15;56.39;99940.19;4898888;28;98478;-66
2021/08/01 05:29:35;;;;;;;3.33;2.10;;;;;;;18.20;56.56;99937.28;4901808;28;115512;-75
2021/08/01 05:32:01;;;;;;;3.75;2.55;;;;;;;18.29;56.56;99945.41;4901228;28;97920;-66
2021/08/01 05:34:27;;;;;;;2.97;2.30;;;;;;;18.35;56.11;99936.69;4895247;28;110608;-66
2021/08/01 05:36:53;;;;;;;4.18;2.60;;;;;;;18.42;56.15;99938.88;4901941;28;128127;-76
2021/08/01 05:39:19;;;;;;;3.95;2.38;;;;;;;18.49;55.95;99939.16;4900175;28;126437;-76
2021/08/01 05:41:45;;;;;;;4.20;2.38;;;;;;;18.57;56.12;99945.66;4900947;28;116329;-76
2021/08/01 05:44:11;;;;;;;4.68;2.65;;;;;;;18.63;55.53;99939.69;4898929;28;128528;-76
2021/08/01 05:46:37;;;;;;;3.97;2.90;;;;;;;18.65;55.27;99931.94;4913548;28;129008;-66
2021/08/01 05:49:03;;;;;;;3.50;2.38;;;;;;;18.64;55.63;99932.28;4880014;28;128313;-75
2021/08/01 05:51:29;;;;;;;3.42;2.28;;;;;;;18.64;55.56;99927.63;4896496;28;118051;-75
2021/08/01 05:53:55;;;;;;;3.35;2.42;;;;;;;18.66;55.56;99927.28;4899360;28;97679;-75
2021/08/01 05:56:21;;;;;;;2.85;2.50;;;;;;;18.64;55.46;99916.72;4881241;28;102450;-66
2021/08/01 05:58:47;;;;;;;4.40;2.65;;;;;;;18.61;55.28;99931.03;4896417;28;128279;-75
2021/08/01 06:01:14;;;;;;;4.65;2.75;;;;;;;18.59;55.50;99913.41;4898257;28;117648;-75
2021/08/01 06:03:41;;;;;;;4.80;2.45;;;;;;;18.57;55.63;99916.44;4899838;28;98774;-75
2021/08/01 06:06:15;;;;;;;3.72;2.60;;;;;;;18.58;55.58;99912.56;4899690;28;97756;-75
2021/08/01 06:08:44;;;;;;;5.22;2.40;;;;;;;18.61;55.41;99917.38;4899207;28;97925;-66
2021/08/01 06:11:10;;;;;;;4.75;2.63;;;;;;;18.61;55.57;99911.91;4897512;28;98234;-66
2021/08/01 06:13:36;;;;;;;4.47;2.50;;;;;;;18.63;55.41;99914.31;4891320;28;118439;-66
2021/08/01 06:16:03;;;;;;;3.75;2.55;;;;;;;18.64;55.26;99913.97;4896473;28;106503;-75
2021/08/01 06:18:29;;;;;;;3.05;2.30;;;;;;;18.65;55.34;99906.59;4897602;28;112274;-66
2021/08/01 06:21:16;;;;;;;3.50;2.50;;;;;;;18.65;55.05;99910.13;4898326;28;101045;-66
2021/08/01 06:23:43;;;;;;;4.45;2.45;;;;;;;18.70;55.46;99913.78;4899136;28;98002;-66
2021/08/01 06:26:10;;;;;;;4.97;2.45;;;;;;;18.73;55.35;99919.38;4898551;28;113497;-66
2021/08/01 06:28:36;;;;;;;4.18;2.60;;;;;;;18.75;55.03;99928.06;4898512;28;98241;-76
2021/08/01 06:31:04;;;;;;;4.07;2.53;;;;;;;18.78;55.34;99932.03;4891143;28;116925;-66
2021/08/01 06:33:30;;;;;;;4.30;2.35;;;;;;;18.81;55.22;99932.16;4898677;28;110619;-66
2021/08/01 06:35:57;;;;;;;3.35;2.38;;;;;;;18.84;54.81;99939.69;4864431;28;100097;-66
2021/08/01 06:38:23;;;;;;;5.55;2.65;;;;;;;18.83;54.90;99935.38;4898796;28;97838;-66
2021/08/01 06:40:49;;;;;;;3.65;2.25;;;;;;;18.87;55.17;99943.69;4898662;28;98233;-75
2021/08/01 06:43:15;;;;;;;3.72;2.40;;;;;;;18.87;55.18;99930.84;4899538;28;98522;-75
2021/08/01 06:45:41;;;;;;;3.35;2.67;;;;;;;18.91;55.15;99933.69;4898498;28;127410;-76
2021/08/01 06:48:08;;;;;;;4.10;2.38;;;;;;;18.93;55.24;99936.88;4896761;28;98803;-75
2021/08/01 06:50:35;;;;;;;4.43;2.70;;;;;;;18.94;55.06;99930.28;4861355;28;97828;-67
2021/08/01 06:53:01;;;;;;;5.65;2.50;;;;;;;18.98;55.15;99933.94;4896372;28;99950;-66
2021/08/01 06:55:27;;;;;;;5.03;2.75;;;;;;;19.02;54.83;99934.06;4897134;28;127564;-66
2021/08/01 06:57:53;;;;;;;4.07;2.30;;;;;;;19.05;54.89;99936.13;4898225;28;126884;-66
2021/08/01 07:00:22;;;;;;;3.80;2.33;;;;;;;19.09;55.20;99932.38;4900196;28;115766;-66
2021/08/01 07:02:59;;;;;;;4.53;2.58;;;;;;;19.12;55.03;99928.97;4900400;28;98898;-66
2021/08/01 07:05:27;;;;;;;4.35;2.28;;;;;;;19.18;55.43;99934.22;4901553;28;98934;-76
2021/08/01 07:07:53;;;;;;;3.85;2.78;;;;;;;19.27;55.42;99932.22;4902174;28;98261;-75
2021/08/01 07:10:19;;;;;;;5.00;3.00;;;;;;;19.35;55.44;99932.09;4901354;28;97921;-75
2021/08/01 07:12:46;;;;;;;4.00;2.92;;;;;;;19.44;55.54;99923.00;4902244;28;98461;-75
2021/08/01 07:15:14;;;;;;;4.78;2.92;;;;;;;19.52;55.46;99931.09;4901457;28;101819;-66
2021/08/01 07:17:40;;;;;;;4.15;2.80;;;;;;;19.61;55.18;99923.63;4901231;28;114175;-66
2021/08/01 07:20:11;;;;;;;5.07;2.55;;;;;;;19.69;54.81;99919.19;4902011;28;98222;-75
2021/08/01 07:22:38;;;;;;;4.65;2.67;;;;;;;19.81;54.14;99926.59;4902630;28;98455;-75
2021/08/01 07:25:05;;;;;;;4.47;2.80;;;;;;;19.92;54.21;99927.72;4904578;28;98379;-76
2021/08/01 07:27:31;;;;;;;7.50;3.33;;;;;;;20.05;53.18;99921.13;4899505;28;105405;-66
2021/08/01 07:29:57;;;;;;;4.90;2.60;;;;;;;20.17;53.10;99914.03;4900583;28;116229;-66
2021/08/01 07:32:23;;;;;;;4.32;3.03;;;;;;;20.23;52.83;99921.66;4898531;28;126857;-66
2021/08/01 07:34:49;;;;;;;3.70;2.88;;;;;;;20.26;52.67;99920.97;4867507;28;99843;-66
2021/08/01 07:37:16;;;;;;;5.07;2.90;;;;;;;20.29;52.37;99914.81;4901795;28;98052;-76
2021/08/01 07:39:42;;;;;;;5.68;2.50;;;;;;;20.34;52.88;99922.75;4901505;28;97931;-75
2021/08/01 07:42:08;;;;;;;8.05;3.00;;;;;;;20.41;52.99;99924.94;4900297;28;119799;-76
2021/08/01 07:44:45;;;;;;;3.38;2.65;;;;;;;20.48;52.68;99933.34;4901933;28;106115;-75
2021/08/01 07:47:16;;;;;;;3.75;2.47;;;;;;;20.54;52.43;99931.97;4885889;28;98330;-66
2021/08/01 07:49:43;;;;;;;4.50;2.60;;;;;;;20.56;52.89;99935.19;4899561;28;106801;-66
2021/08/01 07:52:09;;;;;;;6.38;2.63;;;;;;;20.61;52.81;99936.06;4899136;28;98461;-66
2021/08/01 07:54:35;;;;;;;3.40;2.45;;;;;;;20.62;52.96;99929.44;4898482;28;109052;-75
2021/08/01 07:57:02;;;;;;;3.13;2.65;;;;;;;20.62;53.59;99940.41;4901486;28;98494;-66
2021/08/01 07:59:28;;;;;;;3.55;2.40;;;;;;;20.63;52.95;99936.50;4901651;28;97926;-75
2021/08/01 08:01:54;;;;;;;4.35;2.50;;;;;;;20.64;52.76;99936.19;4899726;28;126988;-75
2021/08/01 08:04:20;;;;;;;4.55;2.60;;;;;;;20.63;52.83;99945.53;4901311;28;98501;-67
2021/08/01 08:06:48;;;;;;;3.35;2.50;;;;;;;20.63;52.51;99942.78;4901003;28;113518;-67
2021/08/01 08:09:14;;;;;;;3.38;2.45;;;;;;;20.66;52.79;99941.31;4899338;28;98073;-66
2021/08/01 08:11:40;;;;;;;3.58;2.53;;;;;;;20.67;52.23;99938.22;4899647;28;117935;-66
2021/08/01 08:14:06;;;;;;;2.97;2.58;;;;;;;20.64;52.01;99946.34;4899349;28;98213;-74
2021/08/01 08:16:34;;;;;;;6.47;2.60;;;;;;;20.60;52.18;99946.25;4899920;28;123706;-66
2021/08/01 08:19:00;;;;;;;4.30;2.42;;;;;;;20.56;52.41;99934.38;4882803;28;98085;-75
2021/08/01 08:21:26;;;;;;;3.75;2.60;;;;;;;20.51;52.15;99940.09;4899496;28;127044;-74
2021/08/01 08:23:53;;;;;;;4.40;2.53;;;;;;;20.48;52.38;99936.09;4900532;28;97962;-75
2021/08/01 08:26:19;;;;;;;3.05;2.30;;;;;;;20.47;52.66;99944.63;4882243;28;114629;-66
2021/08/01 08:28:45;;;;;;;4.20;2.20;;;;;;;20.45;52.98;99931.28;4900074;28;117461;-75
2021/08/01 08:31:11;;;;;;;3.60;2.45;;;;;;;20.47;53.28;99936.41;4899518;28;127365;-74
2021/08/01 08:33:38;;;;;;;4.05;2.58;;;;;;;20.48;53.01;99932.56;4899941;28;128076;-75
2021/08/01 08:36:04;;;;;;;5.07;2.35;;;;;;;20.50;53.59;99936.56;4893265;28;98114;-66
2021/08/01 08:38:30;;;;;;;4.28;2.65;;;;;;;20.51;53.58;99934.59;4900532;28;117773;-74
2021/08/01 08:40:56;;;;;;;5.57;2.88;;;;;;;20.53;53.59;99941.34;4866589;28;98559;-66
2021/08/01 08:43:22;;;;;;;4.43;2.80;;;;;;;20.53;53.59;99944.06;4878327;28;127170;-65
2021/08/01 08:45:48;;;;;;;3.25;2.95;;;;;;;;;;4896610;28;127815;-73
2021/08/01 08:48:15;;;;;;;4.45;2.90;;;;;;;20.54;53.54;99936.66;4883235;28;97802;-65
2021/08/01 08:50:41;;;;;;;4.20;2.90;;;;;;;20.54;54.22;99942.13;4865692;28;112221;-65
2021/08/01 08:53:07;;;;;;;4.43;2.80;;;;;;;20.57;54.90;99946.94;4866142;28;105433;-74
2021/08/01 08:55:34;;;;;;;3.40;2.83;;;;;;;20.58;55.07;99945.78;4882162;28;98251;-74
2021/08/01 08:58:06;;;;;;;4.95;2.80;;;;;;;20.55;54.41;99943.72;4898177;28;100154;-74
2021/08/01 09:00:33;;;;;;;3.83;2.77;;;;;;;20.53;55.04;99940.56;4897888;28;98727;-66
2021/08/01 09:02:59;;;;;;;5.63;3.15;;;;;;;20.49;55.16;99947.84;4898563;28;98465;-66
2021/08/01 09:05:25;;;;;;;3.97;2.90;;;;;;;20.50;55.25;99941.22;4898100;28;103726;-74
2021/08/01 09:07:51;;;;;;;4.65;3.25;;;;;;;20.53;55.12;99938.59;4882531;28;97988;-74
2021/08/01 09:10:18;;;;;;;3.28;2.70;;;;;;;20.56;55.56;99943.38;4899740;28;97917;-65
2021/08/01 09:12:52;;;;;;;3.90;3.08;;;;;;;20.61;55.13;99944.28;4900928;28;98399;-66
2021/08/01 09:15:27;;;;;;;4.97;2.80;;;;;;;20.66;55.28;99950.31;4897696;28;98402;-65
2021/08/01 09:17:54;;;;;;;5.00;2.85;;;;;;;20.73;54.82;99957.94;4899122;28;97774;-66
2021/08/01 09:20:25;;;;;;;4.60;3.00;;;;;;;20.80;54.93;99953.47;4897524;28;98103;-74
2021/08/01 09:23:11;;;;;;;5.93;3.65;;;;;;;20.90;54.86;99952.16;4898533;28;98660;-74
2021/08/01 09:25:39;;;;;;;6.22;3.42;;;;;;;20.98;54.82;99953.16;4899646;28;97930;-65
2021/08/01 09:28:23;;;;;;;4.50;3.40;;;;;;;21.09;54.65;99956.97;4900190;28;98003;-74
2021/08/01 09:30:56;;;;;;;5.70;3.22;;;;;;;21.18;55.32;99962.31;4899528;28;98527;-65
2021/08/01 09:33:39;;;;;;;4.40;3.42;;;;;;;21.27;54.92;99955.53;4898009;28;98736;-74
2021/08/01 09:36:12;;;;;;;4.75;3.58;;;;;;;21.28;55.62;99945.34;4899619;28;98503;-74
2021/08/01 09:39:04;;;;;;;4.82;3.80;;;;;;;21.35;55.65;99962.03;4899137;28;97924;-74
2021/08/01 09:41:33;;;;;;;4.60;4.00;;;;;;;21.29;56.04;99958.69;4899233;28;98397;-66
2021/08/01 09:44:01;;;;;;;5.68;3.72;;;;;;;21.23;56.71;99960.13;4899978;28;98492;-74
2021/08/01 09:46:40;;;;;;;4.55;3.75;;;;;;;21.20;56.20;99962.75;4899879;28;98842;-65
2021/08/01 09:49:17;;;;;;;5.03;4.00;;;;;;;21.12;56.20;99961.78;4900773;28;98076;-75
2021/08/01 09:51:45;;;;;;;4.65;3.72;;;;;;;21.11;57.19;99960.19;4897822;28;98503;-74
2021/08/01 09:54:12;;;;;;;4.55;4.15;;;;;;;21.16;57.64;99959.13;4881793;28;103250;-73
2021/08/01 09:56:39;;;;;;;4.97;4.45;;;;;;;21.16;57.75;99956.38;4865253;28;98040;-74
2021/08/01 09:59:18;;;;;;;5.75;4.43;;;;;;;21.12;58.16;99958.25;4899747;28;97912;-65
2021/08/01 10:01:49;;;;;;;7.00;5.28;;;;;;;21.10;58.23;99958.56;4896790;28;100061;-74
2021/08/01 10:04:26;;;;;;;5.53;5.00;;;;;;;21.08;58.40;99961.66;4898658;28;98648;-74
2021/08/01 10:07:12;;;;;;;5.03;4.47;;;;;;;21.07;58.96;99957.34;4897353;28;97855;-74
2021/08/01 10:09:42;;;;;;;5.38;4.43;;;;;;;21.05;58.69;99961.56;4899816;28;97925;-74
2021/08/01 10:12:08;;;;;;;5.47;4.97;;;;;;;21.03;58.71;99956.44;4898986;28;98892;-74
2021/08/01 10:14:35;;;;;;;5.88;4.97;;;;;;;21.04;59.03;99959.97;4897242;28;98469;-65
2021/08/01 10:17:03;;;;;;;6.18;4.90;;;;;;;21.04;59.09;99966.25;4899040;28;97906;-74
2021/08/01 10:19:29;;;;;;;6.28;5.72;;;;;;;21.06;59.01;99957.69;4914142;28;98159;-74
2021/08/01 10:22:00;;;;;;;7.05;6.07;;;;;;;21.02;58.81;99952.09;4899910;28;97795;-66
2021/08/01 10:24:38;;;;;;;6.55;5.68;;;;;;;20.99;58.54;99955.56;4898624;28;98799;-65
2021/08/01 10:27:07;;;;;;;6.40;5.75;;;;;;;20.96;59.11;99961.72;4882155;28;98194;-74
2021/08/01 10:29:46;;;;;;;5.68;5.15;;;;;;;21.01;58.24;99960.69;4881062;28;98285;-74
2021/08/01 10:32:14;;;;;;;6.35;5.45;;;;;;;21.13;58.42;99963.34;4880345;28;98424;-66
2021/08/01 10:34:51;;;;;;;7.30;5.40;;;;;;;21.25;58.46;99965.25;4896583;28;98893;-65
2021/08/01 10:37:30;;;;;;;6.50;5.43;;;;;;;21.35;58.21;99963.97;4899459;28;98176;-74
2021/08/01 10:39:56;;;;;;;5.80;5.15;;;;;;;21.43;58.44;99966.53;4899820;28;97908;-65
2021/08/01 10:42:25;;;;;;;6.15;5.65;;;;;;;21.45;57.83;99957.94;4864775;28;98861;-74
2021/08/01 10:44:53;;;;;;;5.50;5.00;;;;;;;21.44;58.38;99970.06;4889276;28;98631;-66
2021/08/01 10:47:19;;;;;;;7.10;6.00;;;;;;;21.40;58.66;99963.72;4899519;28;98670;-74
2021/08/01 10:49:47;;;;;;;7.05;5.78;;;;;;;21.30;58.79;99974.00;4881471;28;98099;-65
2021/08/01 10:52:17;;;;;;;6.05;5.45;;;;;;;21.21;59.05;99967.09;4896516;28;98494;-66
2021/08/01 10:54:57;;;;;;;7.05;6.35;;;;;;;21.15;59.09;99960.28;4898645;28;99174;-66
2021/08/01 10:57:25;;;;;;;7.60;6.80;;;;;;;21.13;59.93;99960.63;4898987;28;98284;-66
2021/08/01 10:59:53;;;;;;;7.72;6.88;;;;;;;21.12;60.15;99961.78;4897463;28;99804;-66
2021/08/01 11:02:28;;;;;;;6.47;5.82;;;;;;;21.09;59.77;99954.25;4895837;28;98582;-66
2021/08/01 11:04:55;;;;;;;6.85;6.18;;;;;;;21.04;60.72;99960.78;4898457;28;97981;-66
2021/08/01 11:07:27;;;;;;;6.80;6.10;;;;;;;20.95;60.15;99959.34;4898370;28;111470;-66
2021/08/01 11:10:10;;;;;;;8.30;6.38;;;;;;;20.94;60.33;99960.47;4898525;28;97878;-74
2021/08/01 11:12:37;;;;;;;6.50;5.90;;;;;;;20.94;60.72;99952.25;4898788;28;98176;-73
2021/08/01 11:15:05;;;;;;;8.40;6.35;;;;;;;20.94;60.10;99946.78;4897869;28;98018;-65
2021/08/01 11:17:43;;;;;;;7.75;6.57;;;;;;;21.00;59.79;99950.88;4898945;28;98408;-74
2021/08/01 11:20:15;;;;;;;6.53;5.85;;;;;;;21.05;59.38;99943.19;4898415;28;98934;-65
2021/08/01 11:22:44;;;;;;;;;;;;;;;21.23;58.50;99943.69;4898549;28;98505;-66
2021/08/01 11:25:23;;;;;;;6.93;6.22;;;;;;;21.30;58.98;99943.06;4898332;28;98323;-73
2021/08/01 11:28:11;;;;;;;7.53;6.82;;;;;;;21.44;58.86;99942.66;4898716;28;98657;-65
2021/08/01 11:31:01;;;;;;;6.65;5.80;;;;;;;21.54;58.75;99940.19;4898500;28;97986;-74
2021/08/01 11:33:40;;;;;;;6.38;5.78;;;;;;;21.61;58.53;99950.53;4898549;28;98436;-65
2021/08/01 11:36:12;;;;;;;7.47;6.32;;;;;;;21.74;58.60;99946.56;4898074;28;99058;-74